createdAt,value
2022-11-18T00:00:18.593Z,31.08
2022-11-18T00:00:50.905Z,37.53
2022-11-18T00:01:23.632Z,34.88
2022-11-18T00:01:55.527Z,33.65
2022-11-18T00:02:27.500Z,34.72
2022-11-18T00:02:59.365Z,32.20
2022-11-18T00:03:31.200Z,34.53
2022-11-18T00:04:03.087Z,34.58
2022-11-18T00:04:34.959Z,34.42
2022-11-18T00:05:06.937Z,32.17
2022-11-18T00:05:38.807Z,34.78
2022-11-18T00:06:13.626Z,36.85
2022-11-18T00:06:45.627Z,34.58
2022-11-18T00:07:17.577Z,34.95
2022-11-18T00:07:49.556Z,33.65
2022-11-18T00:08:22.440Z,31.67
2022-11-18T00:08:55.452Z,28.45
2022-11-18T00:09:27.318Z,31.35
2022-11-18T00:09:59.263Z,29.73
2022-11-18T00:10:31.118Z,31.12
2022-11-18T00:11:34.013Z,30.10
2022-11-18T00:12:24.745Z,29.65
2022-11-18T00:13:16.325Z,27.08
2022-11-18T00:14:07.199Z,29.25
2022-11-18T00:14:39.107Z,27.37
2022-11-18T00:15:10.959Z,32.90
2022-11-18T00:15:42.816Z,28.20
2022-11-18T00:16:14.678Z,24.75
2022-11-18T00:16:48.181Z,31.80
2022-11-18T00:17:20.371Z,29.42
2022-11-18T00:17:52.221Z,28.20
2022-11-18T00:18:24.111Z,35.80
2022-11-18T00:18:56.066Z,31.05
2022-11-18T00:19:37.729Z,30.02
2022-11-18T00:20:10.468Z,28.15
2022-11-18T00:20:42.612Z,31.33
2022-11-18T00:21:14.755Z,30.30
2022-11-18T00:21:46.660Z,29.58
2022-11-18T00:22:18.568Z,31.08
2022-11-18T00:22:50.931Z,31.23
2022-11-18T00:23:22.906Z,28.27
2022-11-18T00:23:54.920Z,31.27
2022-11-18T00:24:27.312Z,32.58
2022-11-18T00:24:59.458Z,27.90
2022-11-18T00:25:31.351Z,31.20
2022-11-18T00:26:12.442Z,29.08
2022-11-18T00:26:44.647Z,34.38
2022-11-18T00:27:16.550Z,30.65
2022-11-18T00:27:48.425Z,26.52
2022-11-18T00:28:20.882Z,28.12
2022-11-18T00:28:52.758Z,26.85
2022-11-18T00:29:26.919Z,28.50
2022-11-18T00:29:58.808Z,27.95
2022-11-18T00:30:30.737Z,29.05
2022-11-18T00:31:10.674Z,25.95
2022-11-18T00:31:43.286Z,26.27
2022-11-18T00:32:15.137Z,23.87
2022-11-18T00:32:47.021Z,27.05
2022-11-18T00:33:18.894Z,25.27
2022-11-18T00:33:51.069Z,26.23
2022-11-18T00:34:23.664Z,26.42
2022-11-18T00:34:55.559Z,25.88
2022-11-18T00:35:27.456Z,28.70
2022-11-18T00:35:59.723Z,29.40
2022-11-18T00:36:31.792Z,26.77
2022-11-18T00:37:03.650Z,26.50
2022-11-18T00:37:35.533Z,27.95
2022-11-18T00:38:07.408Z,27.95
2022-11-18T00:38:40.356Z,28.65
2022-11-18T00:39:15.115Z,29.98
2022-11-18T00:39:47.278Z,26.33
2022-11-18T00:40:19.335Z,29.55
2022-11-18T00:40:59.912Z,28.20
2022-11-18T00:41:50.441Z,28.33
2022-11-18T00:42:40.832Z,29.15
2022-11-18T00:43:12.691Z,31.80
2022-11-18T00:43:44.563Z,31.20
2022-11-18T00:44:16.721Z,28.55
2022-11-18T00:44:48.567Z,28.15
2022-11-18T00:45:21.936Z,30.85
2022-11-18T00:45:53.928Z,36.92
2022-11-18T00:46:25.816Z,33.13
2022-11-18T00:46:57.963Z,36.40
2022-11-18T00:47:29.791Z,30.52
2022-11-18T00:48:02.991Z,31.75
2022-11-18T00:48:35.504Z,34.90
2022-11-18T00:49:07.928Z,31.02
2022-11-18T00:49:40.560Z,33.55
2022-11-18T00:50:12.511Z,30.40
2022-11-18T00:50:44.402Z,31.02
2022-11-18T00:51:18.687Z,29.83
2022-11-18T00:51:50.695Z,32.35
2022-11-18T00:52:22.584Z,29.98
2022-11-18T00:52:54.646Z,29.70
2022-11-18T00:53:27.189Z,25.77
2022-11-18T00:53:59.048Z,28.17
2022-11-18T00:54:31.124Z,38.60
2022-11-18T00:55:03.392Z,36.65
2022-11-18T00:55:35.347Z,29.70
2022-11-18T00:56:08.393Z,26.87
2022-11-18T00:56:40.280Z,31.17
2022-11-18T00:57:12.228Z,34.28
2022-11-18T00:57:44.105Z,29.15
2022-11-18T00:58:16.095Z,27.37
2022-11-18T00:58:48.007Z,25.88
2022-11-18T00:59:20.407Z,26.12
2022-11-18T00:59:52.548Z,29.05
2022-11-18T01:00:24.700Z,28.38
2022-11-18T01:00:56.777Z,27.37
2022-11-18T01:01:28.771Z,28.20
2022-11-18T01:02:00.647Z,30.85
2022-11-18T01:02:32.547Z,31.33
2022-11-18T01:03:04.431Z,28.98
2022-11-18T01:03:36.288Z,27.15
2022-11-18T01:04:08.196Z,34.35
2022-11-18T01:04:40.140Z,32.88
2022-11-18T01:05:12.026Z,29.55
2022-11-18T01:05:44.305Z,30.23
2022-11-18T01:06:16.520Z,32.50
2022-11-18T01:06:48.436Z,27.48
2022-11-18T01:07:20.440Z,35.38
2022-11-18T01:07:52.303Z,28.65
2022-11-18T01:08:25.933Z,28.92
2022-11-18T01:08:57.823Z,30.40
2022-11-18T01:09:29.739Z,31.40
2022-11-18T01:10:01.658Z,32.10
2022-11-18T01:10:34.201Z,31.05
2022-11-18T01:11:25.052Z,32.00
2022-11-18T01:12:15.550Z,34.67
2022-11-18T01:13:06.235Z,31.75
2022-11-18T01:13:38.141Z,32.95
2022-11-18T01:14:10.042Z,33.10
2022-11-18T01:14:41.959Z,27.95
2022-11-18T01:15:13.859Z,30.05
2022-11-18T01:15:48.788Z,32.28
2022-11-18T01:16:26.896Z,30.52
2022-11-18T01:16:58.755Z,27.52
2022-11-18T01:17:31.521Z,28.67
2022-11-18T01:18:03.482Z,29.75
2022-11-18T01:18:35.449Z,26.95
2022-11-18T01:19:07.977Z,26.58
2022-11-18T01:19:39.855Z,26.80
2022-11-18T01:20:11.957Z,34.05
2022-11-18T01:20:44.481Z,27.67
2022-11-18T01:21:17.062Z,29.87
2022-11-18T01:21:49.680Z,30.23
2022-11-18T01:22:21.715Z,36.00
2022-11-18T01:22:53.572Z,29.12
2022-11-18T01:23:25.551Z,28.65
2022-11-18T01:23:57.555Z,28.40
2022-11-18T01:24:31.193Z,33.20
2022-11-18T01:25:03.176Z,32.72
2022-11-18T01:25:39.461Z,35.33
2022-11-18T01:26:13.662Z,31.77
2022-11-18T01:26:45.575Z,27.87
2022-11-18T01:27:17.885Z,29.37
2022-11-18T01:27:49.824Z,28.52
2022-11-18T01:28:23.949Z,27.35
2022-11-18T01:29:00.091Z,31.33
2022-11-18T01:29:32.029Z,45.22
2022-11-18T01:30:04.479Z,42.95
2022-11-18T01:30:38.048Z,37.35
2022-11-18T01:31:13.419Z,41.75
2022-11-18T01:32:01.908Z,37.20
2022-11-18T01:32:37.421Z,28.52
2022-11-18T01:33:09.425Z,26.35
2022-11-18T01:33:42.135Z,26.73
2022-11-18T01:34:14.731Z,30.92
2022-11-18T01:34:46.708Z,25.58
2022-11-18T01:35:18.735Z,33.33
2022-11-18T01:35:50.628Z,27.50
2022-11-18T01:36:27.619Z,25.60
2022-11-18T01:36:59.532Z,26.92
2022-11-18T01:37:31.370Z,33.05
2022-11-18T01:38:04.320Z,25.25
2022-11-18T01:38:36.177Z,28.00
2022-11-18T01:39:08.098Z,39.90
2022-11-18T01:39:40.015Z,31.40
2022-11-18T01:40:12.422Z,30.35
2022-11-18T01:40:44.366Z,34.33
2022-11-18T01:41:17.145Z,36.05
2022-11-18T01:41:49.042Z,32.35
2022-11-18T01:42:20.943Z,36.65
2022-11-18T01:42:52.908Z,30.45
2022-11-18T01:43:25.094Z,29.90
2022-11-18T01:44:26.978Z,30.05
2022-11-18T01:45:23.496Z,28.08
2022-11-18T01:45:55.369Z,32.53
2022-11-18T01:46:30.002Z,31.12
2022-11-18T01:47:02.000Z,27.35
2022-11-18T01:47:44.807Z,28.52
2022-11-18T01:48:18.443Z,26.50
2022-11-18T01:48:55.793Z,28.15
2022-11-18T01:49:28.018Z,25.98
2022-11-18T01:50:00.786Z,30.40
2022-11-18T01:50:36.938Z,26.95
2022-11-18T01:51:16.899Z,28.83
2022-11-18T01:51:55.222Z,29.30
2022-11-18T01:52:27.481Z,29.48
2022-11-18T01:53:04.925Z,29.42
2022-11-18T01:53:42.223Z,31.73
2022-11-18T01:54:20.280Z,30.85
2022-11-18T01:54:59.422Z,33.85
2022-11-18T01:55:35.693Z,31.67
2022-11-18T01:56:14.243Z,30.42
2022-11-18T01:56:52.699Z,30.92
2022-11-18T01:57:27.775Z,30.70
2022-11-18T01:58:09.159Z,31.77
2022-11-18T01:58:51.305Z,30.65
2022-11-18T01:59:30.875Z,29.42
2022-11-18T02:00:06.055Z,30.62
2022-11-18T02:00:38.855Z,29.40
2022-11-18T02:01:11.526Z,41.88
2022-11-18T02:01:44.137Z,37.17
2022-11-18T02:02:16.504Z,37.88
2022-11-18T02:02:49.061Z,44.53
2022-11-18T02:03:22.163Z,37.40
2022-11-18T02:03:55.918Z,43.10
2022-11-18T02:04:28.036Z,42.55
2022-11-18T02:05:02.569Z,39.92
2022-11-18T02:05:36.209Z,36.53
2022-11-18T02:06:10.308Z,35.03
2022-11-18T02:06:47.313Z,34.67
2022-11-18T02:07:21.440Z,37.92
2022-11-18T02:07:53.412Z,31.67
2022-11-18T02:08:26.017Z,31.25
2022-11-18T02:08:58.516Z,30.15
2022-11-18T02:09:30.609Z,27.92
2022-11-18T02:10:05.300Z,29.52
2022-11-18T02:10:37.139Z,26.42
2022-11-18T02:11:34.092Z,29.55
2022-11-18T02:12:07.502Z,28.85
2022-11-18T02:12:39.430Z,27.55
2022-11-18T02:13:12.986Z,26.67
2022-11-18T02:13:44.854Z,30.88
2022-11-18T02:14:19.830Z,29.98
2022-11-18T02:14:52.147Z,28.65
2022-11-18T02:15:46.634Z,28.80
2022-11-18T02:16:28.171Z,26.25
2022-11-18T02:16:59.995Z,24.80
2022-11-18T02:17:57.380Z,28.20
2022-11-18T02:18:56.104Z,30.65
2022-11-18T02:19:46.693Z,27.73
2022-11-18T02:20:29.548Z,31.20
2022-11-18T02:21:29.029Z,27.48
2022-11-18T02:22:20.129Z,27.23
2022-11-18T02:23:03.979Z,33.17
2022-11-18T02:23:53.965Z,24.75
2022-11-18T02:24:43.729Z,23.08
2022-11-18T02:25:24.649Z,28.55
2022-11-18T02:26:33.563Z,25.98
2022-11-18T02:27:27.364Z,26.42
2022-11-18T02:28:08.245Z,32.08
2022-11-18T02:29:08.746Z,36.75
2022-11-18T02:29:58.721Z,65.80
2022-11-18T02:30:34.153Z,54.97
2022-11-18T02:31:12.189Z,58.63
2022-11-18T02:31:55.476Z,50.50
2022-11-18T02:32:34.820Z,47.38
2022-11-18T02:33:23.267Z,38.33
2022-11-18T02:34:28.378Z,35.08
2022-11-18T02:35:12.265Z,29.27
2022-11-18T02:35:51.960Z,28.65
2022-11-18T02:36:31.650Z,31.67
2022-11-18T02:37:19.254Z,33.55
2022-11-18T02:38:07.461Z,27.20
2022-11-18T02:38:45.671Z,30.88
2022-11-18T02:39:23.158Z,29.12
2022-11-18T02:40:01.508Z,35.35
2022-11-18T02:40:43.004Z,28.38
2022-11-18T02:41:22.244Z,28.92
2022-11-18T02:41:59.787Z,27.08
2022-11-18T02:42:35.806Z,27.65
2022-11-18T02:43:18.543Z,31.05
2022-11-18T02:43:55.779Z,34.05
2022-11-18T02:44:29.771Z,30.45
2022-11-18T02:45:06.931Z,26.05
2022-11-18T02:45:43.022Z,30.27
2022-11-18T02:46:25.844Z,29.80
2022-11-18T02:47:02.016Z,29.20
2022-11-18T02:47:36.446Z,32.03
2022-11-18T02:48:11.659Z,27.35
2022-11-18T02:48:50.478Z,29.92
2022-11-18T02:49:51.952Z,28.62
2022-11-18T02:50:28.140Z,29.15
2022-11-18T02:51:02.710Z,29.17
2022-11-18T02:51:36.396Z,28.25
2022-11-18T02:52:11.910Z,24.90
2022-11-18T02:52:46.322Z,29.73
2022-11-18T02:53:21.098Z,29.17
2022-11-18T02:53:56.696Z,30.80
2022-11-18T02:54:29.473Z,29.10
2022-11-18T02:55:05.460Z,27.60
2022-11-18T02:55:39.328Z,30.50
2022-11-18T02:56:12.296Z,25.35
2022-11-18T02:56:46.335Z,28.77
2022-11-18T02:57:20.010Z,32.38
2022-11-18T02:57:53.561Z,32.03
2022-11-18T02:58:26.559Z,29.17
2022-11-18T02:58:58.585Z,29.02
2022-11-18T02:59:30.521Z,31.45
2022-11-18T03:00:02.505Z,29.02
2022-11-18T03:00:36.387Z,29.90
2022-11-18T03:01:18.593Z,29.40
2022-11-18T03:01:50.968Z,29.08
2022-11-18T03:02:23.466Z,28.45
2022-11-18T03:02:55.357Z,31.87
2022-11-18T03:03:31.027Z,28.92
2022-11-18T03:04:03.341Z,30.83
2022-11-18T03:04:36.008Z,31.87
2022-11-18T03:05:13.315Z,30.62
2022-11-18T03:06:01.424Z,32.70
2022-11-18T03:06:39.897Z,33.03
2022-11-18T03:07:21.475Z,31.58
2022-11-18T03:08:05.672Z,27.77
2022-11-18T03:08:50.270Z,32.92
2022-11-18T03:09:31.245Z,38.63
2022-11-18T03:10:03.862Z,31.60
2022-11-18T03:11:14.568Z,28.62
2022-11-18T03:12:05.089Z,32.28
2022-11-18T03:12:59.519Z,31.95
2022-11-18T03:13:41.935Z,30.45
2022-11-18T03:14:17.041Z,28.85
2022-11-18T03:15:21.139Z,27.90
2022-11-18T03:16:02.667Z,26.73
2022-11-18T03:16:42.761Z,32.40
2022-11-18T03:17:44.773Z,32.40
2022-11-18T03:18:21.012Z,28.20
2022-11-18T03:19:14.543Z,28.35
2022-11-18T03:20:16.835Z,30.45
2022-11-18T03:20:53.286Z,32.25
2022-11-18T03:21:30.265Z,30.83
2022-11-18T03:22:08.016Z,36.28
2022-11-18T03:22:55.085Z,28.05
2022-11-18T03:23:38.663Z,29.92
2022-11-18T03:24:19.066Z,35.05
2022-11-18T03:25:01.212Z,32.05
2022-11-18T03:25:42.180Z,29.48
2022-11-18T03:26:31.282Z,33.10
2022-11-18T03:27:30.029Z,31.37
2022-11-18T03:28:18.237Z,32.22
2022-11-18T03:28:59.201Z,31.23
2022-11-18T03:29:36.268Z,33.20
2022-11-18T03:30:12.692Z,31.48
2022-11-18T03:30:57.964Z,29.48
2022-11-18T03:31:40.938Z,29.05
2022-11-18T03:32:18.372Z,29.05
2022-11-18T03:33:04.060Z,30.77
2022-11-18T03:33:42.297Z,32.55
2022-11-18T03:34:36.140Z,28.95
2022-11-18T03:35:12.973Z,31.35
2022-11-18T03:35:47.944Z,27.98
2022-11-18T03:36:23.429Z,31.33
2022-11-18T03:37:01.167Z,29.00
2022-11-18T03:37:35.861Z,29.92
2022-11-18T03:38:16.124Z,32.13
2022-11-18T03:38:53.910Z,31.75
2022-11-18T03:39:28.911Z,31.27
2022-11-18T03:40:15.408Z,32.30
2022-11-18T03:40:52.508Z,31.85
2022-11-18T03:41:26.434Z,29.10
2022-11-18T03:42:08.700Z,27.17
2022-11-18T03:43:13.015Z,31.15
2022-11-18T03:43:57.757Z,35.40
2022-11-18T03:44:35.398Z,29.63
2022-11-18T03:45:14.824Z,32.78
2022-11-18T03:45:54.369Z,37.38
2022-11-18T03:46:36.938Z,29.40
2022-11-18T03:47:24.488Z,35.00
2022-11-18T03:48:03.651Z,36.38
2022-11-18T03:48:41.345Z,31.92
2022-11-18T03:49:20.337Z,35.30
2022-11-18T03:50:41.834Z,37.08
2022-11-18T03:51:18.607Z,33.08
2022-11-18T03:51:57.135Z,26.75
2022-11-18T03:52:33.158Z,29.73
2022-11-18T03:53:06.288Z,30.17
2022-11-18T03:53:44.371Z,29.92
2022-11-18T03:54:22.044Z,32.53
2022-11-18T03:54:57.905Z,31.20
2022-11-18T03:55:35.339Z,30.37
2022-11-18T03:56:17.106Z,32.45
2022-11-18T03:57:02.725Z,27.42
2022-11-18T03:57:51.968Z,31.20
2022-11-18T03:58:32.456Z,32.70
2022-11-18T03:59:29.562Z,31.62
2022-11-18T04:00:11.279Z,30.98
2022-11-18T04:00:48.391Z,30.02
2022-11-18T04:01:29.329Z,28.10
2022-11-18T04:02:20.660Z,32.20
2022-11-18T04:02:52.788Z,29.30
2022-11-18T04:03:26.246Z,28.92
2022-11-18T04:03:58.215Z,28.27
2022-11-18T04:04:30.319Z,32.67
2022-11-18T04:05:04.544Z,32.22
2022-11-18T04:05:40.070Z,32.58
2022-11-18T04:06:21.457Z,30.67
2022-11-18T04:06:59.124Z,28.45
2022-11-18T04:07:42.183Z,25.70
2022-11-18T04:08:24.679Z,29.58
2022-11-18T04:09:03.204Z,31.33
2022-11-18T04:09:43.081Z,28.50
2022-11-18T04:10:19.473Z,31.37
2022-11-18T04:10:59.903Z,27.52
2022-11-18T04:11:55.703Z,28.10
2022-11-18T04:12:31.801Z,28.60
2022-11-18T04:13:12.621Z,29.33
2022-11-18T04:14:18.743Z,26.40
2022-11-18T04:14:55.408Z,25.37
2022-11-18T04:15:28.101Z,27.02
2022-11-18T04:16:00.590Z,29.85
2022-11-18T04:16:40.305Z,25.73
2022-11-18T04:17:14.887Z,27.25
2022-11-18T04:17:46.816Z,29.27
2022-11-18T04:18:19.327Z,26.70
2022-11-18T04:18:51.205Z,26.05
2022-11-18T04:19:23.672Z,26.33
2022-11-18T04:19:56.274Z,29.40
2022-11-18T04:20:28.777Z,30.73
2022-11-18T04:21:00.617Z,31.10
2022-11-18T04:21:32.854Z,28.83
2022-11-18T04:22:05.127Z,28.20
2022-11-18T04:22:37.070Z,31.30
2022-11-18T04:23:09.071Z,26.98
2022-11-18T04:23:40.958Z,28.92
2022-11-18T04:24:12.908Z,30.67
2022-11-18T04:24:45.117Z,27.37
2022-11-18T04:25:17.038Z,25.48
2022-11-18T04:25:48.933Z,27.15
2022-11-18T04:26:20.795Z,26.58
2022-11-18T04:26:52.950Z,29.27
2022-11-18T04:27:24.824Z,30.58
2022-11-18T04:27:56.688Z,31.58
2022-11-18T04:28:28.559Z,29.80
2022-11-18T04:29:00.767Z,27.70
2022-11-18T04:29:33.890Z,30.10
2022-11-18T04:30:07.343Z,27.75
2022-11-18T04:30:39.345Z,27.33
2022-11-18T04:31:11.320Z,27.40
2022-11-18T04:31:43.253Z,28.05
2022-11-18T04:32:15.381Z,27.10
2022-11-18T04:32:47.337Z,22.90
2022-11-18T04:33:19.186Z,28.42
2022-11-18T04:33:51.068Z,28.50
2022-11-18T04:34:23.089Z,29.37
2022-11-18T04:34:54.971Z,28.58
2022-11-18T04:35:27.435Z,25.55
2022-11-18T04:35:59.301Z,27.90
2022-11-18T04:36:31.227Z,26.15
2022-11-18T04:37:03.241Z,26.70
2022-11-18T04:37:35.615Z,30.67
2022-11-18T04:38:07.504Z,26.23
2022-11-18T04:38:39.393Z,26.75
2022-11-18T04:39:11.292Z,31.27
2022-11-18T04:39:43.249Z,32.08
2022-11-18T04:40:15.323Z,32.22
2022-11-18T04:40:47.275Z,34.78
2022-11-18T04:41:19.268Z,44.15
2022-11-18T04:41:57.229Z,43.70
2022-11-18T04:42:29.153Z,37.92
2022-11-18T04:43:01.331Z,32.90
2022-11-18T04:43:33.266Z,26.95
2022-11-18T04:44:13.139Z,27.58
2022-11-18T04:44:45.315Z,24.60
2022-11-18T04:45:17.366Z,28.87
2022-11-18T04:45:49.213Z,26.23
2022-11-18T04:46:21.166Z,24.63
2022-11-18T04:46:54.035Z,27.37
2022-11-18T04:47:25.884Z,25.92
2022-11-18T04:48:03.071Z,32.50
2022-11-18T04:48:35.970Z,32.13
2022-11-18T04:49:09.695Z,31.85
2022-11-18T04:49:41.546Z,34.60
2022-11-18T04:50:13.434Z,38.53
2022-11-18T04:50:45.546Z,43.70
2022-11-18T04:51:17.465Z,49.60
2022-11-18T04:51:50.158Z,56.72
2022-11-18T04:52:22.100Z,61.25
2022-11-18T04:52:53.954Z,43.95
2022-11-18T04:53:25.878Z,38.78
2022-11-18T04:53:58.144Z,41.65
2022-11-18T04:54:30.067Z,65.12
2022-11-18T04:55:01.993Z,71.35
2022-11-18T04:55:36.544Z,65.12
2022-11-18T04:56:08.436Z,66.10
2022-11-18T04:56:45.815Z,61.28
2022-11-18T04:57:20.853Z,51.15
2022-11-18T04:57:52.818Z,55.08
2022-11-18T04:58:24.705Z,52.88
2022-11-18T04:59:01.938Z,52.83
2022-11-18T04:59:33.892Z,58.35
2022-11-18T05:00:06.566Z,56.33
2022-11-18T05:00:38.838Z,64.85
2022-11-18T05:01:11.251Z,49.65
2022-11-18T05:01:43.260Z,59.75
2022-11-18T05:02:15.264Z,62.97
2022-11-18T05:02:48.233Z,68.62
2022-11-18T05:03:20.184Z,62.00
2022-11-18T05:03:52.135Z,51.97
2022-11-18T05:04:27.540Z,55.63
2022-11-18T05:04:59.432Z,44.40
2022-11-18T05:05:31.329Z,37.72
2022-11-18T05:06:03.285Z,35.83
2022-11-18T05:06:35.337Z,36.15
2022-11-18T05:07:08.050Z,38.65
2022-11-18T05:07:40.072Z,58.63
2022-11-18T05:08:11.985Z,51.10
2022-11-18T05:08:43.914Z,46.45
2022-11-18T05:09:16.918Z,38.85
2022-11-18T05:09:49.437Z,33.03
2022-11-18T05:10:21.283Z,34.95
2022-11-18T05:11:13.604Z,30.42
2022-11-18T05:12:04.126Z,32.55
2022-11-18T05:12:52.319Z,25.50
2022-11-18T05:13:24.195Z,29.02
2022-11-18T05:13:56.068Z,23.35
2022-11-18T05:14:29.860Z,26.65
2022-11-18T05:15:02.119Z,26.52
2022-11-18T05:15:34.032Z,28.62
2022-11-18T05:16:06.164Z,24.50
2022-11-18T05:16:38.091Z,26.05
2022-11-18T05:17:10.595Z,26.05
2022-11-18T05:17:42.548Z,28.10
2022-11-18T05:18:14.412Z,25.40
2022-11-18T05:18:46.332Z,24.92
2022-11-18T05:19:18.780Z,22.67
2022-11-18T05:19:50.754Z,23.00
2022-11-18T05:20:23.021Z,22.98
2022-11-18T05:20:54.880Z,23.35
2022-11-18T05:21:26.698Z,23.85
2022-11-18T05:21:59.207Z,22.77
2022-11-18T05:22:31.121Z,24.63
2022-11-18T05:23:02.972Z,26.77
2022-11-18T05:23:34.834Z,27.35
2022-11-18T05:24:07.102Z,30.17
2022-11-18T05:24:39.104Z,25.10
2022-11-18T05:25:10.974Z,26.98
2022-11-18T05:25:43.111Z,25.35
2022-11-18T05:26:14.938Z,22.50
2022-11-18T05:26:48.140Z,26.95
2022-11-18T05:27:19.973Z,29.73
2022-11-18T05:27:51.828Z,30.17
2022-11-18T05:28:23.691Z,22.65
2022-11-18T05:28:55.999Z,24.75
2022-11-18T05:29:27.943Z,23.95
2022-11-18T05:29:59.814Z,21.33
2022-11-18T05:30:31.701Z,20.73
2022-11-18T05:31:13.045Z,21.05
2022-11-18T05:31:47.864Z,19.60
2022-11-18T05:32:19.770Z,19.67
2022-11-18T05:32:51.876Z,22.23
2022-11-18T05:33:23.892Z,22.00
2022-11-18T05:33:56.630Z,26.50
2022-11-18T05:34:28.498Z,22.30
2022-11-18T05:35:00.362Z,28.17
2022-11-18T05:35:32.197Z,25.02
2022-11-18T05:36:09.711Z,24.25
2022-11-18T05:36:41.981Z,25.65
2022-11-18T05:37:13.951Z,23.92
2022-11-18T05:37:45.840Z,22.75
2022-11-18T05:38:17.850Z,22.15
2022-11-18T05:38:50.229Z,22.92
2022-11-18T05:39:22.100Z,21.95
2022-11-18T05:39:53.981Z,26.10
2022-11-18T05:40:25.829Z,26.60
2022-11-18T05:40:57.804Z,34.67
2022-11-18T05:41:48.712Z,24.83
2022-11-18T05:42:39.100Z,20.88
2022-11-18T05:43:11.131Z,21.02
2022-11-18T05:43:43.001Z,18.90
2022-11-18T05:44:15.633Z,19.65
2022-11-18T05:44:47.603Z,20.50
2022-11-18T05:45:20.505Z,19.95
2022-11-18T05:45:52.918Z,21.58
2022-11-18T05:46:25.172Z,25.80
2022-11-18T05:46:57.527Z,19.83
2022-11-18T05:47:49.390Z,20.98
2022-11-18T05:48:21.689Z,20.48
2022-11-18T05:48:53.615Z,23.45
2022-11-18T05:49:25.831Z,23.95
2022-11-18T05:49:57.706Z,22.45
2022-11-18T05:50:34.030Z,20.42
2022-11-18T05:51:06.200Z,23.23
2022-11-18T05:51:38.212Z,23.92
2022-11-18T05:52:10.667Z,23.00
2022-11-18T05:52:42.575Z,22.30
2022-11-18T05:53:15.189Z,21.62
2022-11-18T05:53:50.691Z,25.83
2022-11-18T05:54:23.079Z,21.12
2022-11-18T05:54:55.066Z,25.15
2022-11-18T05:55:31.940Z,23.85
2022-11-18T05:56:07.477Z,21.12
2022-11-18T05:56:42.051Z,22.33
2022-11-18T05:57:14.296Z,21.12
2022-11-18T05:57:46.206Z,20.88
2022-11-18T05:58:18.304Z,26.08
2022-11-18T05:58:50.262Z,22.67
2022-11-18T05:59:22.177Z,23.33
2022-11-18T05:59:54.116Z,24.15
2022-11-18T06:00:26.193Z,23.15
2022-11-18T06:01:03.476Z,23.85
2022-11-18T06:01:44.308Z,22.20
2022-11-18T06:02:23.977Z,23.45
2022-11-18T06:02:57.693Z,29.00
2022-11-18T06:03:32.211Z,27.13
2022-11-18T06:04:25.669Z,28.55
2022-11-18T06:05:02.847Z,27.27
2022-11-18T06:05:34.966Z,29.60
2022-11-18T06:06:10.695Z,25.23
2022-11-18T06:06:44.327Z,25.20
2022-11-18T06:07:22.868Z,28.95
2022-11-18T06:07:57.139Z,27.60
2022-11-18T06:08:33.176Z,30.85
2022-11-18T06:09:07.269Z,25.02
2022-11-18T06:09:42.395Z,29.08
2022-11-18T06:10:28.028Z,23.02
2022-11-18T06:10:59.964Z,24.95
2022-11-18T06:11:43.411Z,31.87
2022-11-18T06:12:23.501Z,30.60
2022-11-18T06:13:00.361Z,29.95
2022-11-18T06:13:38.713Z,31.17
2022-11-18T06:14:36.006Z,28.50
2022-11-18T06:15:20.672Z,23.70
2022-11-18T06:15:52.850Z,25.65
2022-11-18T06:16:27.970Z,22.37
2022-11-18T06:17:05.820Z,24.50
2022-11-18T06:17:46.147Z,22.85
2022-11-18T06:18:25.426Z,26.23
2022-11-18T06:18:58.130Z,27.85
2022-11-18T06:19:31.623Z,51.80
2022-11-18T06:20:05.048Z,32.33
2022-11-18T06:20:40.401Z,38.55
2022-11-18T06:21:12.731Z,48.63
2022-11-18T06:21:46.559Z,48.45
2022-11-18T06:22:18.911Z,43.42
2022-11-18T06:22:54.258Z,37.80
2022-11-18T06:23:31.741Z,29.17
2022-11-18T06:24:03.877Z,25.25
2022-11-18T06:24:36.424Z,23.58
2022-11-18T06:25:08.450Z,23.58
2022-11-18T06:25:41.007Z,30.95
2022-11-18T06:26:15.573Z,23.10
2022-11-18T06:26:48.571Z,24.45
2022-11-18T06:27:21.095Z,27.15
2022-11-18T06:27:56.159Z,21.65
2022-11-18T06:28:29.741Z,19.37
2022-11-18T06:29:01.674Z,23.85
2022-11-18T06:29:33.520Z,22.15
2022-11-18T06:30:06.023Z,25.23
2022-11-18T06:30:38.699Z,28.08
2022-11-18T06:31:10.574Z,26.23
2022-11-18T06:31:42.443Z,26.25
2022-11-18T06:32:14.320Z,29.70
2022-11-18T06:32:46.557Z,28.00
2022-11-18T06:33:18.571Z,23.30
2022-11-18T06:33:50.435Z,23.42
2022-11-18T06:34:22.636Z,31.90
2022-11-18T06:34:54.547Z,34.80
2022-11-18T06:35:26.407Z,53.95
2022-11-18T06:35:58.372Z,40.65
2022-11-18T06:36:30.303Z,31.40
2022-11-18T06:37:15.517Z,27.23
2022-11-18T06:37:47.674Z,33.78
2022-11-18T06:38:19.582Z,34.30
2022-11-18T06:38:51.419Z,46.05
2022-11-18T06:39:23.375Z,62.55
2022-11-18T06:39:55.678Z,53.92
2022-11-18T06:40:31.768Z,34.75
2022-11-18T06:41:06.529Z,33.17
2022-11-18T06:41:38.425Z,30.65
2022-11-18T06:42:10.846Z,27.50
2022-11-18T06:43:01.788Z,29.37
2022-11-18T06:44:13.864Z,27.77
2022-11-18T06:44:45.763Z,30.83
2022-11-18T06:45:17.768Z,35.78
2022-11-18T06:46:09.662Z,33.85
2022-11-18T06:46:57.234Z,28.40
2022-11-18T06:47:29.230Z,26.23
2022-11-18T06:48:01.574Z,27.27
2022-11-18T06:48:33.768Z,26.40
2022-11-18T06:49:05.744Z,29.95
2022-11-18T06:49:37.710Z,31.27
2022-11-18T06:50:10.046Z,26.95
2022-11-18T06:50:41.881Z,29.83
2022-11-18T06:51:13.793Z,25.27
2022-11-18T06:51:45.791Z,40.12
2022-11-18T06:52:17.747Z,51.08
2022-11-18T06:52:49.627Z,51.78
2022-11-18T06:53:21.494Z,60.20
2022-11-18T06:53:53.723Z,57.08
2022-11-18T06:54:25.593Z,56.53
2022-11-18T06:54:57.548Z,43.72
2022-11-18T06:55:29.459Z,41.80
2022-11-18T06:56:06.068Z,36.15
2022-11-18T06:56:38.067Z,32.42
2022-11-18T06:57:09.905Z,28.50
2022-11-18T06:57:41.763Z,30.52
2022-11-18T06:58:13.649Z,26.87
2022-11-18T06:58:46.287Z,29.80
2022-11-18T06:59:23.770Z,28.33
2022-11-18T07:00:01.634Z,27.15
2022-11-18T07:00:34.053Z,22.20
2022-11-18T07:01:13.735Z,20.37
2022-11-18T07:01:45.919Z,26.70
2022-11-18T07:02:19.192Z,24.67
2022-11-18T07:02:51.047Z,23.92
2022-11-18T07:03:23.586Z,22.10
2022-11-18T07:03:55.784Z,22.92
2022-11-18T07:04:27.978Z,23.10
2022-11-18T07:04:59.909Z,24.30
2022-11-18T07:05:31.838Z,25.23
2022-11-18T07:06:03.944Z,27.17
2022-11-18T07:06:37.133Z,25.90
2022-11-18T07:07:09.099Z,25.15
2022-11-18T07:07:42.377Z,23.50
2022-11-18T07:08:14.534Z,23.27
2022-11-18T07:08:47.062Z,23.60
2022-11-18T07:09:19.281Z,23.08
2022-11-18T07:09:51.746Z,22.55
2022-11-18T07:10:23.615Z,24.30
2022-11-18T07:10:55.524Z,20.70
2022-11-18T07:11:28.126Z,20.67
2022-11-18T07:11:59.968Z,23.23
2022-11-18T07:12:31.944Z,25.92
2022-11-18T07:13:03.864Z,26.27
2022-11-18T07:13:42.131Z,21.62
2022-11-18T07:14:15.393Z,24.12
2022-11-18T07:14:47.249Z,26.10
2022-11-18T07:15:19.452Z,21.83
2022-11-18T07:15:51.442Z,22.33
2022-11-18T07:16:25.666Z,20.23
2022-11-18T07:16:57.563Z,23.95
2022-11-18T07:17:30.831Z,21.67
2022-11-18T07:18:02.672Z,25.23
2022-11-18T07:18:40.939Z,24.73
2022-11-18T07:19:14.039Z,23.45
2022-11-18T07:19:46.054Z,25.05
2022-11-18T07:20:17.981Z,26.12
2022-11-18T07:20:50.140Z,20.83
2022-11-18T07:21:24.929Z,25.95
2022-11-18T07:21:57.303Z,22.85
2022-11-18T07:22:29.232Z,23.75
2022-11-18T07:23:01.100Z,21.75
2022-11-18T07:23:33.844Z,21.35
2022-11-18T07:24:08.179Z,22.13
2022-11-18T07:24:40.948Z,24.15
2022-11-18T07:25:13.047Z,21.58
2022-11-18T07:25:45.505Z,27.90
2022-11-18T07:26:18.319Z,22.95
2022-11-18T07:26:50.180Z,23.73
2022-11-18T07:27:22.041Z,22.87
2022-11-18T07:27:53.953Z,24.35
2022-11-18T07:28:26.523Z,24.35
2022-11-18T07:28:58.481Z,27.17
2022-11-18T07:29:30.315Z,26.95
2022-11-18T07:30:02.195Z,26.48
2022-11-18T07:30:34.064Z,28.20
2022-11-18T07:31:13.176Z,29.15
2022-11-18T07:31:45.400Z,27.95
2022-11-18T07:32:17.238Z,32.30
2022-11-18T07:32:49.109Z,32.90
2022-11-18T07:33:21.066Z,33.97
2022-11-18T07:33:55.765Z,36.30
2022-11-18T07:34:27.701Z,36.92
2022-11-18T07:34:59.535Z,38.67
2022-11-18T07:35:31.421Z,40.75
2022-11-18T07:36:04.186Z,67.03
2022-11-18T07:36:36.374Z,48.78
2022-11-18T07:37:08.687Z,45.22
2022-11-18T07:37:40.566Z,34.67
2022-11-18T07:38:12.428Z,34.50
2022-11-18T07:38:44.582Z,36.90
2022-11-18T07:39:16.607Z,28.65